Time;durP1;ratioP1;P1;durP2;ratioP2;P2;SDS_P1;SDS_P2;PMS_P1;PMS_P2;Temp;Humidity;BMP_temperature;BMP_pressure;BME280_temperature;BME280_humidity;BME280_pressure;Samples;Min_cycle;Max_cycle;Signal;HPM_P1;HPM_P2
2022/09/15 00:01:19;;;;;;;7.63;2.75;;;21.20;67.50;;;;;;5069144;28;20198;-75
2022/09/15 00:03:48;;;;;;;9.10;2.88;;;21.20;67.40;;;;;;5068502;28;20213;-75
2022/09/15 00:06:17;;;;;;;4.65;2.33;;;21.20;67.40;;;;;;5064300;28;20223;-75
2022/09/15 00:08:45;;;;;;;7.70;2.45;;;21.20;67.40;;;;;;5066832;28;20218;-74
2022/09/15 00:11:17;;;;;;;5.63;2.70;;;21.20;67.40;;;;;;5068167;28;20625;-75
2022/09/15 00:13:48;;;;;;;9.73;3.45;;;21.20;67.40;;;;;;5059445;28;20285;-75
2022/09/15 00:16:17;;;;;;;6.35;2.30;;;21.30;67.30;;;;;;5067350;28;20198;-75
2022/09/15 00:18:46;;;;;;;10.10;2.67;;;21.20;67.30;;;;;;5063652;28;20222;-76
2022/09/15 00:21:17;;;;;;;4.93;2.80;;;21.30;67.30;;;;;;5069072;28;20224;-77
2022/09/15 00:23:46;;;;;;;4.03;2.38;;;21.30;67.30;;;;;;5067908;28;20195;-75
2022/09/15 00:26:17;;;;;;;5.37;2.60;;;21.30;67.30;;;;;;5070919;28;20248;-75
2022/09/15 00:28:47;;;;;;;5.80;2.58;;;21.30;67.30;;;;;;5065266;28;20246;-75
2022/09/15 00:31:19;;;;;;;7.57;2.72;;;21.30;67.20;;;;;;5066580;28;20263;-75
2022/09/15 00:33:48;;;;;;;5.28;2.40;;;21.30;67.10;;;;;;5065287;28;20198;-75
2022/09/15 00:36:17;;;;;;;4.53;2.28;;;21.30;67.00;;;;;;5063204;28;20633;-76
2022/09/15 00:38:46;;;;;;;5.07;2.63;;;21.30;67.00;;;;;;5062053;28;20258;-75
2022/09/15 00:41:17;;;;;;;3.70;2.33;;;21.30;67.00;;;;;;5067789;28;20218;-75
2022/09/15 00:43:50;;;;;;;6.30;2.35;;;21.30;67.00;;;;;;5059763;28;20269;-76
2022/09/15 00:46:21;;;;;;;5.80;2.88;;;21.30;67.00;;;;;;5064771;28;20186;-75
2022/09/15 00:48:55;;;;;;;6.93;2.53;;;21.30;67.10;;;;;;5064556;28;20218;-75
2022/09/15 00:51:31;;;;;;;7.88;2.90;;;21.30;67.00;;;;;;5063709;28;20194;-75
2022/09/15 00:54:01;;;;;;;6.23;2.70;;;21.30;67.10;;;;;;5067567;28;20311;-75
2022/09/15 00:56:32;;;;;;;5.83;2.67;;;21.30;67.20;;;;;;5063812;28;20239;-77
2022/09/15 00:59:04;;;;;;;7.67;3.07;;;21.20;67.30;;;;;;5061016;28;20233;-75
2022/09/15 01:01:32;;;;;;;6.07;2.47;;;21.20;67.30;;;;;;5068296;28;20210;-76
2022/09/15 01:04:01;;;;;;;9.47;3.10;;;21.10;67.30;;;;;;5067615;28;20195;-79
2022/09/15 01:06:32;;;;;;;8.52;3.00;;;21.10;67.70;;;;;;5061311;28;20651;-77
2022/09/15 01:09:06;;;;;;;9.50;2.85;;;21.10;68.00;;;;;;5064424;28;20225;-78
2022/09/15 01:11:35;;;;;;;8.52;2.95;;;21.00;67.90;;;;;;5063693;28;20243;-76
2022/09/15 01:14:04;;;;;;;3.93;2.60;;;21.10;68.00;;;;;;5065128;28;20659;-76
2022/09/15 01:16:42;;;;;;;8.10;3.85;;;21.00;68.00;;;;;;5062536;28;20276;-76
2022/09/15 01:19:50;;;;;;;8.30;3.23;;;21.00;68.00;;;;;;5064306;28;20210;-79
2022/09/15 01:22:32;;;;;;;7.43;3.30;;;21.00;68.00;;;;;;5054876;28;20229;-77
2022/09/15 01:25:09;;;;;;;7.47;2.90;;;21.00;68.40;;;;;;5064456;28;20286;-77
2022/09/15 01:28:09;;;;;;;6.95;2.95;;;21.00;68.50;;;;;;5068740;28;20257;-77
2022/09/15 01:30:42;;;;;;;5.40;2.87;;;20.90;68.60;;;;;;5060418;28;20765;-77
2022/09/15 01:33:20;;;;;;;8.83;3.57;;;20.90;68.70;;;;;;5069000;28;20194;-77
2022/09/15 01:36:06;;;;;;;13.67;3.17;;;20.90;68.90;;;;;;5059558;28;20186;-76
2022/09/15 01:38:47;;;;;;;5.97;2.87;;;20.90;69.20;;;;;;5064602;28;20228;-77
2022/09/15 01:41:18;;;;;;;7.43;2.80;;;20.80;69.30;;;;;;5062157;28;20206;-76
2022/09/15 01:43:51;;;;;;;8.03;2.77;;;20.80;69.50;;;;;;5069285;28;20195;-76
2022/09/15 01:46:25;;;;;;;8.57;2.60;;;20.80;69.50;;;;;;5060314;28;20278;-76
2022/09/15 01:48:56;;;;;;;6.40;2.40;;;20.80;69.70;;;;;;5065137;28;20340;-76
2022/09/15 01:51:27;;;;;;;6.80;2.47;;;20.70;69.80;;;;;;5069199;28;20236;-76
2022/09/15 01:53:56;;;;;;;5.77;2.30;;;20.70;70.00;;;;;;5068027;28;20277;-76
2022/09/15 01:56:25;;;;;;;8.07;2.30;;;20.70;70.40;;;;;;5066080;28;20252;-76
2022/09/15 01:58:53;;;;;;;3.73;1.97;;;20.70;70.10;;;;;;5065013;28;20256;-76
2022/09/15 02:01:30;;;;;;;5.97;2.77;;;20.70;70.20;;;;;;5066107;28;20359;-76
2022/09/15 02:04:04;;;;;;;6.17;2.13;;;20.70;70.50;;;;;;5065581;28;20200;-76
2022/09/15 02:06:38;;;;;;;7.30;2.20;;;20.70;70.60;;;;;;5064796;28;20195;-76
2022/09/15 02:09:13;;;;;;;4.77;1.87;;;20.70;70.50;;;;;;5062198;28;20208;-76
2022/09/15 02:11:51;;;;;;;8.57;2.77;;;20.70;70.60;;;;;;5067500;28;20209;-76
2022/09/15 02:14:30;;;;;;;5.03;2.20;;;20.60;70.80;;;;;;5067122;28;20194;-76
2022/09/15 02:17:00;;;;;;;6.97;2.20;;;20.60;71.00;;;;;;5063554;28;20248;-76
2022/09/15 02:19:32;;;;;;;6.60;3.10;;;20.60;71.20;;;;;;5065024;28;20214;-76
2022/09/15 02:22:06;;;;;;;2.77;2.00;;;20.60;71.40;;;;;;5065894;28;20222;-78
2022/09/15 02:24:39;;;;;;;5.50;2.43;;;20.60;71.40;;;;;;5065082;28;20189;-77
2022/09/15 02:27:11;;;;;;;7.37;2.83;;;20.50;71.50;;;;;;5061715;28;20222;-76
2022/09/15 02:29:41;;;;;;;5.13;2.40;;;20.50;71.80;;;;;;5068755;28;20194;-76
2022/09/15 02:32:14;;;;;;;7.03;2.30;;;20.50;71.80;;;;;;5062956;28;20277;-78
2022/09/15 02:34:47;;;;;;;7.40;2.37;;;20.50;71.90;;;;;;5066573;28;20187;-76
2022/09/15 02:37:17;;;;;;;3.83;2.00;;;20.50;71.90;;;;;;5061065;28;20199;-78
2022/09/15 02:39:51;;;;;;;5.03;2.30;;;20.50;71.80;;;;;;5067628;28;20258;-76
2022/09/15 02:42:24;;;;;;;10.90;2.20;;;20.50;72.20;;;;;;5062629;28;20628;-76
2022/09/15 02:44:52;;;;;;;8.10;2.57;;;20.50;72.30;;;;;;5069364;28;20252;-76
2022/09/15 02:47:23;;;;;;;6.00;2.00;;;20.50;72.20;;;;;;5064092;28;20221;-76
2022/09/15 02:49:51;;;;;;;7.13;2.70;;;20.50;72.30;;;;;;5061762;28;20194;-77
2022/09/15 02:52:20;;;;;;;6.07;2.97;;;20.50;72.50;;;;;;5060914;28;20250;-76
2022/09/15 02:54:49;;;;;;;7.90;2.20;;;20.50;72.60;;;;;;5065216;28;20244;-76
2022/09/15 02:57:17;;;;;;;10.60;3.07;;;20.50;72.70;;;;;;5062468;28;20659;-77
2022/09/15 03:02:32;;;;;;;11.30;2.43;;;20.50;73.30;;;;;;5055246;28;20659;-76
2022/09/15 03:05:00;;;;;;;4.47;2.13;;;20.40;73.30;;;;;;5067191;28;20199;-76
2022/09/15 03:07:29;;;;;;;4.33;2.00;;;20.40;73.50;;;;;;5060160;28;20214;-77
2022/09/15 03:09:59;;;;;;;7.87;2.20;;;20.40;74.50;;;;;;5065868;28;20205;-76
2022/09/15 03:12:28;;;;;;;10.07;2.03;;;20.40;73.60;;;;;;5067764;28;20199;-76
2022/09/15 03:14:56;;;;;;;3.33;2.13;;;20.40;73.50;;;;;;5061896;28;21037;-76
2022/09/15 03:17:24;;;;;;;7.95;2.30;;;20.40;73.50;;;;;;5066681;28;20277;-76
2022/09/15 03:19:54;;;;;;;5.47;2.43;;;20.40;73.60;;;;;;5064576;28;20715;-76
2022/09/15 03:22:23;;;;;;;6.40;2.13;;;20.40;73.70;;;;;;5066727;28;20655;-76
2022/09/15 03:24:51;;;;;;;5.23;1.90;;;20.40;73.80;;;;;;5064637;28;20664;-76
2022/09/15 03:27:20;;;;;;;8.37;2.70;;;20.40;74.00;;;;;;5066292;28;21583;-78
2022/09/15 03:29:48;;;;;;;4.27;2.50;;;20.40;74.10;;;;;;5065412;28;20223;-78
2022/09/15 03:32:16;;;;;;;5.47;2.43;;;20.40;74.10;;;;;;5065120;28;20217;-77
2022/09/15 03:34:45;;;;;;;5.13;2.57;;;20.30;74.90;;;;;;5069189;28;20273;-76
2022/09/15 03:37:15;;;;;;;7.43;2.60;;;20.30;74.30;;;;;;5071894;28;20241;-76
2022/09/15 03:39:43;;;;;;;7.73;2.33;;;20.30;74.40;;;;;;5067971;28;20652;-76
2022/09/15 03:42:12;;;;;;;7.97;2.67;;;20.30;74.50;;;;;;5070276;28;20217;-78
2022/09/15 03:44:41;;;;;;;13.07;3.60;;;20.30;74.80;;;;;;5068622;28;20259;-76
2022/09/15 03:47:09;;;;;;;8.37;3.43;;;20.20;75.00;;;;;;5070966;28;20240;-76
2022/09/15 03:49:37;;;;;;;8.03;3.00;;;20.20;75.20;;;;;;5065506;28;20280;-76
2022/09/15 03:52:06;;;;;;;17.57;3.33;;;20.20;75.40;;;;;;5066203;28;20747;-76
2022/09/15 03:54:35;;;;;;;6.73;2.67;;;20.20;75.60;;;;;;5069838;28;20187;-77
2022/09/15 03:57:04;;;;;;;9.83;2.77;;;20.10;75.60;;;;;;5059758;28;20720;-79
2022/09/15 03:59:32;;;;;;;4.87;2.73;;;20.10;75.60;;;;;;5064210;28;20183;-76
2022/09/15 04:02:01;;;;;;;8.37;3.10;;;20.10;75.80;;;;;;5066221;28;20305;-77
2022/09/15 04:04:30;;;;;;;8.80;2.80;;;20.00;75.80;;;;;;5067378;28;20240;-79
2022/09/15 04:06:59;;;;;;;9.20;2.70;;;20.00;75.90;;;;;;5068837;28;20229;-76
2022/09/15 04:09:27;;;;;;;4.83;2.67;;;20.00;76.10;;;;;;5066145;28;20190;-76
2022/09/15 04:11:57;;;;;;;13.00;3.53;;;19.90;76.10;;;;;;5065314;28;20198;-76
2022/09/15 04:14:25;;;;;;;8.40;2.80;;;19.90;76.30;;;;;;5061856;28;20213;-77
2022/09/15 04:16:53;;;;;;;10.63;3.30;;;19.90;76.30;;;;;;5069103;28;20191;-77
2022/09/15 04:19:22;;;;;;;9.90;2.77;;;19.90;77.20;;;;;;5068493;28;20277;-76
2022/09/15 04:21:50;;;;;;;14.20;2.67;;;19.90;76.50;;;;;;5061507;28;20301;-77
2022/09/15 04:24:18;;;;;;;7.67;2.73;;;19.80;76.60;;;;;;5069923;28;20214;-76
2022/09/15 04:26:47;;;;;;;12.77;3.13;;;19.90;76.70;;;;;;5058320;28;20613;-77
2022/09/15 04:29:17;;;;;;;7.43;2.90;;;19.80;76.60;;;;;;5046355;28;20277;-77
2022/09/15 04:31:47;;;;;;;9.47;3.13;;;19.80;76.60;;;;;;5041678;28;20184;-77
2022/09/15 04:34:15;;;;;;;8.77;3.03;;;19.80;76.60;;;;;;5044735;28;20195;-76
2022/09/15 04:36:44;;;;;;;8.50;3.33;;;19.90;76.80;;;;;;5047004;28;20191;-76
2022/09/15 04:39:12;;;;;;;10.23;3.50;;;19.90;76.70;;;;;;5048735;28;20710;-76
2022/09/15 04:41:41;;;;;;;12.70;2.90;;;19.90;76.80;;;;;;5050774;28;20257;-76
2022/09/15 04:44:09;;;;;;;11.40;2.90;;;19.90;76.80;;;;;;5045480;28;20233;-76
2022/09/15 04:46:39;;;;;;;11.90;2.83;;;19.90;76.80;;;;;;5043176;28;20200;-76
2022/09/15 04:49:07;;;;;;;10.57;3.20;;;20.00;77.10;;;;;;5046647;28;20214;-76
2022/09/15 04:51:35;;;;;;;13.87;3.17;;;20.00;77.10;;;;;;5036588;28;20218;-76
2022/09/15 04:54:04;;;;;;;10.63;2.77;;;20.00;77.00;;;;;;5045860;28;20226;-76
2022/09/15 04:56:32;;;;;;;9.30;2.93;;;20.10;77.10;;;;;;5043602;28;20286;-76
2022/09/15 04:59:01;;;;;;;5.70;2.40;;;20.10;77.00;;;;;;5041829;28;20555;-78
2022/09/15 05:01:35;;;;;;;13.27;2.30;;;20.20;77.00;;;;;;5042141;28;20567;-76
2022/09/15 05:04:07;;;;;;;8.63;2.30;;;20.20;77.00;;;;;;5044958;28;20248;-76
2022/09/15 05:06:37;;;;;;;8.63;3.10;;;20.30;77.80;;;;;;5046417;28;20687;-76
2022/09/15 05:09:07;;;;;;;6.27;2.40;;;20.30;76.90;;;;;;5046500;28;20219;-76
2022/09/15 05:11:38;;;;;;;9.70;2.80;;;20.40;76.80;;;;;;5048975;28;20274;-76
2022/09/15 05:14:06;;;;;;;11.57;3.00;;;20.40;76.50;;;;;;5045871;28;20215;-76
2022/09/15 05:16:35;;;;;;;8.23;2.50;;;20.50;76.20;;;;;;5042986;28;20195;-75
2022/09/15 05:19:04;;;;;;;11.83;2.70;;;20.50;76.10;;;;;;5041047;28;20260;-76
2022/09/15 05:21:34;;;;;;;10.10;2.63;;;20.60;76.20;;;;;;5046051;28;20300;-76
2022/09/15 05:24:03;;;;;;;16.80;2.53;;;20.60;76.10;;;;;;5044070;28;20218;-78
2022/09/15 05:26:32;;;;;;;11.13;3.05;;;20.60;76.00;;;;;;5046145;28;20195;-75
2022/09/15 05:29:00;;;;;;;17.65;2.85;;;20.70;76.20;;;;;;5059188;28;20291;-76
2022/09/15 05:31:30;;;;;;;9.77;3.80;;;20.70;77.00;;;;;;5064848;28;20218;-75
2022/09/15 05:34:01;;;;;;;16.77;3.50;;;20.70;76.40;;;;;;5063345;28;20190;-75
2022/09/15 05:36:29;;;;;;;9.27;3.37;;;20.80;76.30;;;;;;5068125;28;20210;-75
2022/09/15 05:39:00;;;;;;;11.45;3.78;;;20.90;76.40;;;;;;5068383;28;20220;-78
2022/09/15 05:41:29;;;;;;;14.25;2.67;;;20.90;76.40;;;;;;5060158;28;20301;-76
2022/09/15 05:43:58;;;;;;;5.50;2.75;;;21.00;76.40;;;;;;5065739;28;20647;-76
2022/09/15 05:46:27;;;;;;;4.07;2.10;;;21.00;76.30;;;;;;5072490;28;20190;-75
2022/09/15 05:48:59;;;;;;;8.32;2.88;;;21.00;76.30;;;;;;5060745;28;20195;-76
2022/09/15 05:51:28;;;;;;;16.20;2.60;;;21.10;76.20;;;;;;5069843;28;20218;-75
2022/09/15 05:54:01;;;;;;;7.13;3.25;;;21.20;76.20;;;;;;5068679;28;20635;-76
2022/09/15 05:56:30;;;;;;;9.35;3.00;;;21.20;76.10;;;;;;5069886;28;20222;-77
2022/09/15 05:59:00;;;;;;;14.20;3.55;;;21.30;76.30;;;;;;5066729;28;20202;-77
2022/09/15 06:01:29;;;;;;;6.35;3.20;;;21.40;76.40;;;;;;5072625;28;20194;-76
2022/09/15 06:03:58;;;;;;;5.60;2.58;;;21.40;76.70;;;;;;5066413;28;20435;-75
2022/09/15 06:06:27;;;;;;;8.00;2.60;;;21.50;76.70;;;;;;5059244;28;20247;-76
2022/09/15 06:08:59;;;;;;;7.63;2.30;;;21.50;76.50;;;;;;5066456;28;20267;-76
2022/09/15 06:11:30;;;;;;;5.88;2.85;;;21.50;76.30;;;;;;5065651;28;20198;-75
2022/09/15 06:14:02;;;;;;;9.25;2.08;;;21.60;76.10;;;;;;5065376;28;20228;-76
2022/09/15 06:16:32;;;;;;;3.28;2.30;;;21.70;76.10;;;;;;5070063;28;20187;-75
2022/09/15 06:19:02;;;;;;;8.35;2.58;;;21.70;76.10;;;;;;5060597;28;20199;-75
2022/09/15 06:21:32;;;;;;;7.35;3.17;;;21.80;75.80;;;;;;5068165;28;20650;-74
2022/09/15 06:24:04;;;;;;;10.50;2.63;;;21.80;75.30;;;;;;5067155;28;20198;-75
2022/09/15 06:26:33;;;;;;;5.05;2.20;;;21.90;75.20;;;;;;5059509;28;20584;-77
2022/09/15 06:29:04;;;;;;;6.82;2.40;;;21.90;75.20;;;;;;5067397;28;20258;-76
2022/09/15 06:31:33;;;;;;;6.65;2.40;;;21.90;75.20;;;;;;5078093;28;20652;-76
2022/09/15 06:34:02;;;;;;;8.02;2.90;;;22.00;75.00;;;;;;5060743;28;20190;-76
2022/09/15 06:36:31;;;;;;;6.55;3.00;;;22.10;75.60;;;;;;5066014;28;20190;-75
2022/09/15 06:39:01;;;;;;;5.55;2.28;;;22.10;74.70;;;;;;5063205;28;20228;-77
2022/09/15 06:41:30;;;;;;;4.63;2.17;;;22.20;74.40;;;;;;5066132;28;20272;-76
2022/09/15 06:44:18;;;;;;;4.47;1.95;;;22.30;74.30;;;;;;5063445;28;20550;-78
2022/09/15 06:46:46;;;;;;;4.78;2.33;;;22.30;74.30;;;;;;5060388;28;20191;-76
2022/09/15 06:49:15;;;;;;;7.70;2.47;;;22.40;74.20;;;;;;5059046;28;20241;-75
2022/09/15 06:51:43;;;;;;;5.78;2.88;;;22.50;74.20;;;;;;5063612;28;20651;-76
2022/09/15 06:54:14;;;;;;;5.43;2.85;;;22.60;73.90;;;;;;5068829;28;20248;-76
2022/09/15 06:56:43;;;;;;;9.82;2.97;;;22.60;73.80;;;;;;5066130;28;20315;-76
2022/09/15 06:59:12;;;;;;;16.27;3.08;;;22.70;73.90;;;;;;5057727;28;20248;-77
2022/09/15 07:01:41;;;;;;;9.77;3.42;;;22.80;73.80;;;;;;5068799;28;20222;-75
2022/09/15 07:04:10;;;;;;;8.32;3.33;;;22.90;73.50;;;;;;5060788;28;20239;-76
2022/09/15 07:06:39;;;;;;;7.15;3.35;;;23.00;73.50;;;;;;5071613;28;20256;-75
2022/09/15 07:09:08;;;;;;;10.13;2.95;;;23.10;73.40;;;;;;5066927;28;20190;-76
2022/09/15 07:11:38;;;;;;;5.68;3.00;;;23.10;73.30;;;;;;5069229;28;20190;-76
2022/09/15 07:14:06;;;;;;;6.45;3.60;;;23.20;72.70;;;;;;5065808;28;20230;-76
2022/09/15 07:16:34;;;;;;;9.52;2.50;;;23.30;72.10;;;;;;5066754;28;20281;-75
2022/09/15 07:19:04;;;;;;;5.40;2.70;;;23.40;71.90;;;;;;5063481;28;20260;-75
2022/09/15 07:21:34;;;;;;;9.13;2.55;;;23.50;71.80;;;;;;5064685;28;20734;-75
2022/09/15 07:24:02;;;;;;;6.13;2.47;;;23.60;71.30;;;;;;5068640;28;20213;-75
2022/09/15 07:26:34;;;;;;;4.50;2.40;;;23.70;71.20;;;;;;5071589;28;20209;-76
2022/09/15 07:29:05;;;;;;;10.90;3.47;;;23.80;71.10;;;;;;5071404;28;20226;-75
2022/09/15 07:31:36;;;;;;;11.38;2.75;;;23.90;70.60;;;;;;5065753;28;20198;-75
2022/09/15 07:34:05;;;;;;;5.15;2.65;;;24.00;69.80;;;;;;5059226;28;20198;-75
2022/09/15 07:36:34;;;;;;;7.57;2.58;;;24.00;69.30;;;;;;5065267;28;20190;-74
2022/09/15 07:39:03;;;;;;;5.50;2.67;;;24.10;68.80;;;;;;5071221;28;20187;-75
2022/09/15 07:41:32;;;;;;;11.15;2.92;;;24.20;68.90;;;;;;5064898;28;20631;-74
2022/09/15 07:44:01;;;;;;;9.35;2.75;;;24.30;69.00;;;;;;5061967;28;20291;-74
2022/09/15 07:46:32;;;;;;;7.18;3.00;;;24.40;69.00;;;;;;5061191;28;20195;-74
2022/09/15 07:49:07;;;;;;;7.60;2.50;;;24.50;68.60;;;;;;5056309;28;20218;-74
2022/09/15 07:51:35;;;;;;;6.68;2.35;;;24.60;68.20;;;;;;5064090;28;20212;-74
2022/09/15 07:54:03;;;;;;;6.10;2.60;;;24.60;68.00;;;;;;5065701;28;20190;-75
2022/09/15 07:56:32;;;;;;;10.50;2.53;;;24.80;67.90;;;;;;5063140;28;20240;-75
2022/09/15 07:59:00;;;;;;;13.48;2.50;;;24.80;67.40;;;;;;5056847;28;20247;-74
2022/09/15 08:01:28;;;;;;;4.60;2.28;;;25.00;67.00;;;;;;5071196;28;20191;-74
2022/09/15 08:03:58;;;;;;;5.45;1.95;;;25.10;66.70;;;;;;5059902;28;20229;-76
2022/09/15 08:06:28;;;;;;;6.10;2.10;;;25.10;67.20;;;;;;5060464;28;20646;-74
2022/09/15 08:08:56;;;;;;;6.40;2.28;;;25.20;65.20;;;;;;5067909;28;20651;-74
2022/09/15 08:11:28;;;;;;;4.60;1.98;;;25.30;65.00;;;;;;5058333;28;20279;-74
2022/09/15 08:13:59;;;;;;;7.40;1.90;;;25.40;64.70;;;;;;5060474;28;20240;-74
2022/09/15 08:16:27;;;;;;;4.00;2.08;;;25.50;64.70;;;;;;5067427;28;20670;-74
2022/09/15 08:18:56;;;;;;;5.15;2.30;;;25.60;65.10;;;;;;5069855;28;20195;-75
2022/09/15 08:21:26;;;;;;;4.47;2.05;;;25.70;64.60;;;;;;5064589;28;20187;-74
2022/09/15 08:23:56;;;;;;;5.75;2.53;;;25.80;64.50;;;;;;5069598;28;20263;-76
2022/09/15 08:26:26;;;;;;;7.25;2.53;;;25.90;64.70;;;;;;5067887;28;20190;-74
2022/09/15 08:28:55;;;;;;;10.68;2.53;;;26.00;64.40;;;;;;5072898;28;20690;-75
2022/09/15 08:31:23;;;;;;;3.17;1.80;;;26.10;63.60;;;;;;5068131;28;20229;-76
2022/09/15 08:33:54;;;;;;;4.25;1.80;;;26.20;63.10;;;;;;5073928;28;20285;-74
2022/09/15 08:36:26;;;;;;;5.90;2.20;;;26.20;62.50;;;;;;5062601;28;20183;-75
2022/09/15 08:38:55;;;;;;;4.43;1.70;;;26.30;62.00;;;;;;5067155;28;20230;-74
2022/09/15 08:41:27;;;;;;;5.15;1.67;;;26.50;61.90;;;;;;5065900;28;20195;-75
2022/09/15 08:44:00;;;;;;;4.15;1.77;;;26.60;60.70;;;;;;5059081;28;20682;-76
2022/09/15 08:46:35;;;;;;;4.38;1.95;;;26.70;60.20;;;;;;5066755;28;20214;-74
2022/09/15 08:49:09;;;;;;;6.90;2.00;;;26.80;59.90;;;;;;5061640;28;20563;-74
2022/09/15 08:51:45;;;;;;;5.28;1.50;;;26.80;59.60;;;;;;5066063;28;20201;-75
2022/09/15 08:54:18;;;;;;;11.55;1.83;;;27.00;59.60;;;;;;5054247;28;20183;-75
2022/09/15 08:56:48;;;;;;;8.23;2.33;;;27.00;58.80;;;;;;5057293;28;20221;-74
2022/09/15 08:59:18;;;;;;;3.38;2.03;;;27.20;58.90;;;;;;5061558;28;20256;-75
2022/09/15 09:02:07;;;;;;;9.25;2.20;;;27.30;58.50;;;;;;5059859;28;20207;-75
2022/09/15 09:05:05;;;;;;;9.60;1.83;;;27.30;58.10;;;;;;5067195;28;20218;-75
2022/09/15 09:07:51;;;;;;;4.82;1.67;;;27.40;57.70;;;;;;5067554;28;20198;-75
2022/09/15 09:10:26;;;;;;;16.70;2.55;;;27.50;57.50;;;;;;5063126;28;20183;-74
2022/09/15 09:13:08;;;;;;;3.08;1.83;;;27.60;57.10;;;;;;5061749;28;20225;-74
2022/09/15 09:19:34;;;;;;;7.85;1.80;;;27.80;56.40;;;;;;5067015;28;20194;-73
2022/09/15 09:22:09;;;;;;;5.65;2.13;;;27.90;56.10;;;;;;5063343;28;20222;-74
2022/09/15 09:24:43;;;;;;;6.65;2.80;;;28.00;56.40;;;;;;5064414;28;20245;-75
2022/09/15 09:27:14;;;;;;;5.72;1.70;;;28.10;56.10;;;;;;5070024;28;20213;-75
2022/09/15 09:29:48;;;;;;;10.43;2.20;;;28.20;56.20;;;;;;5066836;28;20226;-74
2022/09/15 09:32:20;;;;;;;5.07;2.05;;;28.30;55.70;;;;;;5065820;28;20217;-74
2022/09/15 09:35:04;;;;;;;3.58;1.60;;;28.30;55.50;;;;;;5087022;27;20545;-74
2022/09/15 09:37:33;;;;;;;4.22;1.63;;;28.50;55.40;;;;;;5092386;28;20193;-75
2022/09/15 09:40:02;;;;;;;7.38;1.92;;;28.60;54.80;;;;;;5086849;28;20222;-75
2022/09/15 09:42:35;;;;;;;2.83;1.38;;;28.60;54.30;;;;;;5086739;28;20277;-74
2022/09/15 09:45:05;;;;;;;6.80;1.65;;;28.80;54.60;;;;;;5081945;28;20178;-74
2022/09/15 09:47:36;;;;;;;3.97;1.60;;;28.90;54.50;;;;;;5085738;28;20194;-73
2022/09/15 09:50:34;;;;;;;5.78;1.40;;;29.00;54.00;;;;;;5085708;28;20643;-73
2022/09/15 09:53:27;;;;;;;6.60;1.92;;;29.00;53.10;;;;;;5081141;28;20673;-74
2022/09/15 09:56:16;;;;;;;7.97;1.70;;;29.20;53.20;;;;;;5081308;28;20765;-73
2022/09/15 09:58:44;;;;;;;3.28;1.50;;;29.30;53.20;;;;;;5082829;28;20235;-73
2022/09/15 10:01:15;;;;;;;10.10;2.08;;;29.40;52.60;;;;;;5076083;28;20275;-76
2022/09/15 10:03:44;;;;;;;5.35;1.40;;;29.50;52.30;;;;;;5082573;28;20201;-72
2022/09/15 10:06:21;;;;;;;13.15;1.80;;;29.60;52.10;;;;;;5081155;28;20247;-73
2022/09/15 10:08:57;;;;;;;11.25;2.03;;;29.70;52.20;;;;;;5082451;28;20194;-73
2022/09/15 10:11:41;;;;;;;9.80;1.70;;;29.90;52.20;;;;;;5078113;28;20278;-74
2022/09/15 10:14:19;;;;;;;16.17;2.35;;;29.90;51.30;;;;;;5079948;28;20582;-74
2022/09/15 10:16:58;;;;;;;5.78;1.50;;;30.10;51.30;;;;;;5078686;28;20197;-73
2022/09/15 10:19:27;;;;;;;6.95;1.42;;;30.20;50.00;;;;;;5072692;28;20650;-75
2022/09/15 10:21:59;;;;;;;10.63;2.20;;;30.20;49.80;;;;;;5083992;28;20307;-74
2022/09/15 10:24:34;;;;;;;5.45;1.38;;;30.30;49.10;;;;;;5085419;28;20272;-73
2022/09/15 10:27:18;;;;;;;6.35;1.75;;;30.40;49.30;;;;;;5081558;28;20615;-73
2022/09/15 10:29:47;;;;;;;9.43;1.50;;;30.50;48.50;;;;;;5076494;28;20555;-72
2022/09/15 10:32:33;;;;;;;11.45;1.65;;;30.50;48.80;;;;;;5087082;28;20229;-74
2022/09/15 10:35:04;;;;;;;6.72;1.83;;;30.60;48.80;;;;;;5068828;28;20241;-71
2022/09/15 10:37:43;;;;;;;12.15;1.60;;;30.70;48.60;;;;;;5083179;28;20692;-72
2022/09/15 10:40:34;;;;;;;11.07;1.92;;;30.80;48.40;;;;;;5080138;28;20649;-73
2022/09/15 10:43:22;;;;;;;6.05;1.30;;;30.80;47.30;;;;;;5083627;28;20249;-74
2022/09/15 10:46:00;;;;;;;8.07;1.20;;;31.00;47.70;;;;;;5065101;28;20593;-73
2022/09/15 10:48:43;;;;;;;10.15;2.13;;;31.10;47.50;;;;;;5061033;28;20599;-75
2022/09/15 10:51:25;;;;;;;7.00;1.45;;;31.10;47.30;;;;;;5063105;28;20226;-72
2022/09/15 10:54:23;;;;;;;7.05;1.50;;;31.30;47.30;;;;;;5064695;28;20276;-74
2022/09/15 10:56:57;;;;;;;11.68;1.70;;;31.40;47.40;;;;;;5067199;28;20206;-74
2022/09/15 10:59:40;;;;;;;9.30;1.77;;;31.40;46.70;;;;;;5060012;28;20202;-74
2022/09/15 11:02:49;;;;;;;10.77;1.45;;;31.50;46.90;;;;;;5072008;28;20237;-73
2022/09/15 11:05:28;;;;;;;13.27;1.67;;;31.60;46.10;;;;;;5069574;28;20552;-73
2022/09/15 11:08:22;;;;;;;21.88;1.73;;;31.70;46.20;;;;;;5071579;28;20252;-73
2022/09/15 11:11:02;;;;;;;17.90;1.73;;;31.80;45.60;;;;;;5063515;28;20270;-73
2022/09/15 11:13:40;;;;;;;10.20;1.48;;;31.80;45.00;;;;;;5071935;28;20316;-73
2022/09/15 11:16:28;;;;;;;14.30;1.88;;;31.90;45.30;;;;;;5070754;28;20663;-72
2022/09/15 11:19:16;;;;;;;15.38;2.13;;;32.00;45.30;;;;;;5067470;28;20182;-75
2022/09/15 11:21:50;;;;;;;4.65;1.25;;;32.00;45.00;;;;;;5068689;28;20225;-72
2022/09/15 11:24:31;;;;;;;11.93;1.80;;;32.00;45.20;;;;;;5075636;28;20186;-75
2022/09/15 11:27:07;;;;;;;6.50;1.27;;;32.10;44.70;;;;;;5077934;28;20229;-72
2022/09/15 11:29:49;;;;;;;9.80;1.60;;;32.10;45.00;;;;;;5071005;28;20186;-74
2022/09/15 11:32:22;;;;;;;10.60;1.42;;;32.20;45.00;;;;;;5072549;28;20222;-72
2022/09/15 11:34:57;;;;;;;5.13;1.52;;;32.20;44.70;;;;;;5076628;28;20274;-73
2022/09/15 11:37:34;;;;;;;7.18;1.98;;;32.20;45.00;;;;;;5056478;28;20233;-73
2022/09/15 11:40:07;;;;;;;5.10;1.48;;;32.30;44.90;;;;;;5069752;28;20252;-74
2022/09/15 11:42:44;;;;;;;11.02;1.42;;;32.30;45.10;;;;;;5070925;28;20232;-72
2022/09/15 11:45:20;;;;;;;12.70;1.48;;;32.30;44.80;;;;;;5072358;28;20212;-73
2022/09/15 11:47:52;;;;;;;5.25;1.42;;;32.30;44.30;;;;;;5069915;28;20249;-73
2022/09/15 11:50:24;;;;;;;10.10;1.60;;;32.40;44.20;;;;;;5074659;28;20655;-75
2022/09/15 11:52:57;;;;;;;11.95;1.45;;;32.40;44.10;;;;;;5066968;28;20190;-75
2022/09/15 11:55:31;;;;;;;8.23;1.70;;;32.40;44.20;;;;;;5065139;28;20234;-73
2022/09/15 11:58:19;;;;;;;9.95;1.35;;;32.40;44.30;;;;;;5062497;28;20183;-73
2022/09/15 12:00:54;;;;;;;12.63;2.03;;;32.40;44.10;;;;;;5061658;28;20546;-74
2022/09/15 12:03:30;;;;;;;6.45;1.50;;;32.40;44.30;;;;;;5071770;28;20240;-74
2022/09/15 12:06:05;;;;;;;9.38;1.55;;;32.50;44.50;;;;;;5062119;28;20198;-74
2022/09/15 12:08:40;;;;;;;5.78;1.75;;;32.40;44.30;;;;;;5062724;28;20222;-73
2022/09/15 12:11:16;;;;;;;8.52;1.65;;;32.40;44.40;;;;;;5067842;28;20232;-73
2022/09/15 12:13:46;;;;;;;6.40;1.65;;;32.40;44.20;;;;;;5064733;28;20216;-73
2022/09/15 12:16:16;;;;;;;6.85;1.15;;;32.50;44.70;;;;;;5067669;28;20317;-73
2022/09/15 12:18:48;;;;;;;4.43;1.30;;;32.50;44.40;;;;;;5068895;28;20264;-72
2022/09/15 12:21:23;;;;;;;15.95;1.77;;;32.50;44.50;;;;;;5061549;28;20259;-72
2022/09/15 12:23:58;;;;;;;2.15;1.33;;;32.60;44.50;;;;;;5040749;28;20258;-74
2022/09/15 12:26:27;;;;;;;5.90;1.65;;;32.60;44.60;;;;;;5057647;28;20187;-73
2022/09/15 12:29:02;;;;;;;9.07;1.20;;;32.60;44.90;;;;;;5064712;28;20230;-73
2022/09/15 12:31:36;;;;;;;4.50;1.33;;;32.70;44.70;;;;;;5057514;28;20812;-72
2022/09/15 12:34:34;;;;;;;10.88;2.08;;;32.70;44.60;;;;;;5063023;28;20582;-74
2022/09/15 12:37:08;;;;;;;13.63;3.10;;;32.70;44.00;;;;;;5063352;28;20221;-73
2022/09/15 12:39:40;;;;;;;20.08;2.55;;;32.80;43.90;;;;;;5065797;28;20182;-76
2022/09/15 12:42:17;;;;;;;15.75;2.42;;;32.80;44.30;;;;;;5058107;28;20245;-73
2022/09/15 12:44:53;;;;;;;7.28;1.20;;;32.80;43.80;;;;;;5060251;28;20245;-73
2022/09/15 12:47:30;;;;;;;10.82;1.85;;;32.90;44.20;;;;;;5069934;28;20194;-74
2022/09/15 12:50:08;;;;;;;7.50;2.15;;;32.90;43.90;;;;;;5068525;28;20218;-74
2022/09/15 12:52:47;;;;;;;9.95;2.33;;;32.90;44.20;;;;;;5065937;28;20214;-72
2022/09/15 12:55:19;;;;;;;7.55;1.35;;;32.90;43.90;;;;;;5058468;28;20214;-71
2022/09/15 12:57:54;;;;;;;11.60;1.20;;;32.90;44.80;;;;;;5058658;28;21306;-74
2022/09/15 13:00:41;;;;;;;4.50;1.33;;;32.90;44.40;;;;;;5066099;28;20186;-73
2022/09/15 13:04:08;;;;;;;13.45;2.40;;;33.00;44.20;;;;;;5063181;28;20901;-73
2022/09/15 13:06:37;;;;;;;6.72;1.48;;;33.00;44.70;;;;;;5063441;28;20620;-73
2022/09/15 13:09:26;;;;;;;3.70;1.15;;;33.10;44.20;;;;;;5068652;28;20230;-72
2022/09/15 13:11:56;;;;;;;13.50;1.70;;;33.10;44.10;;;;;;5066255;28;20248;-72
2022/09/15 13:14:32;;;;;;;4.72;1.30;;;33.20;44.20;;;;;;5075339;28;20255;-73
2022/09/15 13:17:10;;;;;;;13.05;1.55;;;33.20;44.00;;;;;;5060139;28;20343;-73
2022/09/15 13:19:43;;;;;;;9.50;1.35;;;33.30;44.20;;;;;;5060016;28;20218;-73
2022/09/15 13:22:22;;;;;;;13.10;1.65;;;33.30;43.80;;;;;;5062400;28;20199;-75